RKNN/KAG METAR and TAF weather

Enter ICAO airport designator
Station Type Date Time Source
RKNN METAR 2022/11/29 14:31 UTC NOAA

RKNN 291431Z 25010G020KT 9999 SCT120 BKN160 07/M14 A3009 RMK CIG160


Station Type Date Time Source
RKNN Decoded METAR 2022/11/29 14:31 UTC NOAA

Kangnung Ab, Korea, South (RKNN) 37-45N 128-57E 6M
Nov 29, 2022 - 09:31 AM EST / 2022.11.29 1431 UTC
Wind: from the WSW (250 degrees) at 12 MPH (10 KT) gusting to 23 MPH (20 KT):0
Visibility: greater than 7 mile(s):0
Sky conditions: mostly cloudy
Temperature: 44 F (7 C)
Dew Point: 6 F (-14 C)
Relative Humidity: 20%
Pressure (altimeter): 30.09 in. Hg (1018 hPa)
ob: RKNN 291431Z 25010G020KT 9999 SCT120 BKN160 07/M14 A3009 RMK CIG160
cycle: 14

Station Type Date Time Source
RKNN TAF 2013/10/14 20:56 UTC NOAA

TAF
AMD RKNN 142045Z 1420/1524 06006G16KT 4800 -RA BR SCT010 BKN020
BECMG 1423/1424 06006G16KT 3200 -RA BR BKN010 OVC020
BECMG 1511/1512 36010KT 4800 -RA BR BKN025 TX16/1421Z TN07/1520Z

Example: see airport list